Tenino, WA

1:10 AM PST on February 08, 2016 (GMT -0800)
Tenino, WA | | Change Station
CLOSE
Current Station
Personal Weather Station
Location: Tenino, WA
Elevation: 283 ft
Nearby Weather Stations

Elev 283 ft 46.86 °N, 122.85 °W | Updated 8 seconds ago

Clear
Clear
38.9 °F
Feels Like 39 °F
N
2.0
Wind Variable Wind from NE
Gusts 2.0 mph

Today
High -- | Low -- °F
--% Chance of Precip.
Yesterday
High -- | Low -- °F
Precip. -- in
Pressure 30.50 in
Visibility 10.0 miles
Clouds Clear
Windchill 39 °F
Dew Point 37 °F
Humidity 92%
Rainfall 0.00 in
Snow Depth Not available.
7:26 AM 5:24 PM
Waning Crescent, 0% visible
METAR KOLM 080854Z AUTO 00000KT 10SM CLR 01/M01 A3050 RMK AO2 SLP328 T00061006 56001
Pressure 30.50 in
Visibility 10.0 miles
Clouds Clear
Windchill 39 °F
Dew Point 37 °F
Humidity 92%
Rainfall 0.00 in
Snow Depth Not available.
7:26 AM 5:24 PM
Waning Crescent, 0% visible
METAR KOLM 080854Z AUTO 00000KT 10SM CLR 01/M01 A3050 RMK AO2 SLP328 T00061006 56001

10-Day Weather Forecast

Almanac

Astronomy

Feb. 08, 2016 Rise Set
Actual Time
Civil Twilight
Nautical Twilight
Astronomical Twilight
Moon
Length of Visible Light
Length of Day
Tomorrow will be .
, % of the Moon is Illuminated

Today's Extremes

State Highs State Lows

Community

WunderPhotos

Upload Photos

1,891,412 photos uploaded!

WunderBlog® & News

Nearby

Air Quality

  Air Quality AQ Index Pollutant
Not available.

Snow Depth

Station Depth Elevation

Earthquake Activity

City Distance Mag. Time & Date
Minimum magnitude displayed is 2.5.

Coastal Water Temperatures

Place Temperature

Stations

Nearby Weather Stations

Station Location Temp. Windchill Dew Point Humidity Wind Precip. Elev Updated Type
                   

Watches & Warnings

There are currently no watches in effect.